createdAt,value
2022-10-21T00:01:00.191Z,29.7
2022-10-21T00:05:53.429Z,33.7
2022-10-21T00:08:20.049Z,28
2022-10-21T00:10:46.669Z,32
2022-10-21T00:13:13.399Z,23.8
2022-10-21T00:15:39.906Z,27.4
2022-10-21T00:18:06.549Z,31.6
2022-10-21T00:20:33.157Z,29
2022-10-21T00:22:59.778Z,30
2022-10-21T00:25:24.918Z,32.6
2022-10-21T00:27:51.574Z,30.4
2022-10-21T00:30:18.159Z,29.6
2022-10-21T00:32:44.804Z,34
2022-10-21T00:35:11.407Z,30.3
2022-10-21T00:37:38.037Z,24.5
2022-10-21T00:40:04.671Z,27.2
2022-10-21T00:42:31.279Z,34.7
2022-10-21T00:44:57.901Z,31.9
2022-10-21T00:47:24.536Z,37.9
2022-10-21T00:49:51.146Z,33
2022-10-21T00:52:17.769Z,29.2
2022-10-21T00:54:44.378Z,33.8
2022-10-21T00:57:09.520Z,29.6
2022-10-21T00:59:36.130Z,28.7
2022-10-21T01:02:02.763Z,27.7
2022-10-21T01:04:29.378Z,35.7
2022-10-21T01:06:56.006Z,30.2
2022-10-21T01:09:22.635Z,30.8
2022-10-21T01:11:49.257Z,30.4
2022-10-21T01:14:15.881Z,31.8
2022-10-21T01:16:42.501Z,33
2022-10-21T01:19:09.116Z,37
2022-10-21T01:21:35.747Z,28.1
2022-10-21T01:24:02.367Z,29.1
2022-10-21T01:26:28.987Z,25.9
2022-10-21T01:28:54.114Z,31.1
2022-10-21T01:31:20.778Z,28.4
2022-10-21T01:33:47.354Z,34.9
2022-10-21T01:36:13.983Z,30.9
2022-10-21T01:38:40.612Z,31.3
2022-10-21T01:41:07.229Z,27.6
2022-10-21T01:43:33.861Z,29.3
2022-10-21T01:46:00.480Z,32.5
2022-10-21T01:48:27.092Z,29.7
2022-10-21T01:50:53.723Z,27.1
2022-10-21T01:53:20.342Z,26.2
2022-10-21T01:55:46.966Z,29.2
2022-10-21T01:58:13.600Z,28.1
2022-10-21T02:00:38.722Z,27.3
2022-10-21T02:03:05.344Z,27.8
2022-10-21T02:05:31.970Z,31.5
2022-10-21T02:07:58.585Z,33
2022-10-21T02:10:25.208Z,28.8
2022-10-21T02:12:51.842Z,25.3
2022-10-21T02:15:18.455Z,24.9
2022-10-21T02:17:45.087Z,26.6
2022-10-21T02:20:11.700Z,32.4
2022-10-21T02:22:38.325Z,25.4
2022-10-21T02:25:04.948Z,24.2
2022-10-21T02:27:31.570Z,34.6
2022-10-21T02:29:58.187Z,28.2
2022-10-21T02:32:23.314Z,28.4
2022-10-21T02:34:49.931Z,24.1
2022-10-21T02:37:16.566Z,29.1
2022-10-21T02:39:43.186Z,30.2
2022-10-21T02:42:09.809Z,33.6
2022-10-21T02:44:36.438Z,27.9
2022-10-21T02:47:03.109Z,32.5
2022-10-21T02:49:29.688Z,36.6
2022-10-21T02:51:56.305Z,35.6
2022-10-21T02:54:22.924Z,32.5
2022-10-21T02:56:49.572Z,34.6
2022-10-21T02:59:16.181Z,36.8
2022-10-21T03:01:42.797Z,34.9
2022-10-21T03:04:07.960Z,33.8
2022-10-21T03:06:34.549Z,34.6
2022-10-21T03:09:01.174Z,30.2
2022-10-21T03:11:27.834Z,31.1
2022-10-21T03:13:54.417Z,33.5
2022-10-21T03:16:21.046Z,31.8
2022-10-21T03:18:47.663Z,38.9
2022-10-21T03:21:14.273Z,32
2022-10-21T03:23:40.905Z,31.4
2022-10-21T03:26:07.519Z,34.7
2022-10-21T03:28:34.144Z,34.3
2022-10-21T03:31:00.767Z,36.6
2022-10-21T03:33:27.395Z,36.7
2022-10-21T03:35:52.515Z,35.9
2022-10-21T03:38:19.162Z,35.6
2022-10-21T03:40:45.767Z,38.4
2022-10-21T03:43:12.392Z,35.6
2022-10-21T03:45:39.021Z,31.9
2022-10-21T03:48:05.629Z,32.1
2022-10-21T03:50:32.264Z,30.7
2022-10-21T03:52:58.872Z,32.7
2022-10-21T03:55:25.502Z,31.7
2022-10-21T03:57:52.132Z,31.4
2022-10-21T04:00:18.743Z,32.5
2022-10-21T04:02:45.377Z,36.9
2022-10-21T04:05:12.000Z,27.2
2022-10-21T04:07:37.115Z,29.2
2022-10-21T04:10:03.795Z,29.1
2022-10-21T04:12:30.372Z,33.2
2022-10-21T04:14:56.993Z,36.6
2022-10-21T04:17:23.621Z,30.4
2022-10-21T04:19:50.237Z,32.5
2022-10-21T04:22:16.859Z,40.6
2022-10-21T04:24:43.485Z,37.6
2022-10-21T04:27:10.101Z,30.1
2022-10-21T04:29:36.722Z,36.3
2022-10-21T04:32:03.362Z,32.3
2022-10-21T04:34:29.974Z,34.6
2022-10-21T04:36:56.614Z,34.2
2022-10-21T04:39:21.726Z,35
2022-10-21T04:41:48.339Z,35.2
2022-10-21T04:44:15.004Z,35
2022-10-21T04:46:41.589Z,32.5
2022-10-21T04:49:08.211Z,31.9
2022-10-21T04:51:34.844Z,36.1
2022-10-21T04:54:01.479Z,32.9
2022-10-21T04:56:28.079Z,37.7
2022-10-21T04:58:54.701Z,29.6
2022-10-21T05:01:21.336Z,37.8
2022-10-21T05:03:47.961Z,35.1
2022-10-21T05:06:14.572Z,37.3
2022-10-21T05:08:41.191Z,34.1
2022-10-21T05:11:06.344Z,38
2022-10-21T05:13:32.948Z,35.5
2022-10-21T05:15:59.569Z,31.8
2022-10-21T05:18:26.180Z,37.8
2022-10-21T05:20:52.811Z,31.1
2022-10-21T05:23:19.436Z,37.7
2022-10-21T05:25:46.061Z,32
2022-10-21T05:28:12.673Z,30.6
2022-10-21T05:30:39.308Z,33.2
2022-10-21T05:33:05.924Z,36.4
2022-10-21T05:35:32.558Z,33.4
2022-10-21T05:37:59.166Z,32.7
2022-10-21T05:40:25.800Z,30
2022-10-21T05:42:50.948Z,29.7
2022-10-21T05:45:17.539Z,34.1
2022-10-21T05:47:44.165Z,28.2
2022-10-21T05:50:10.787Z,36.2
2022-10-21T05:52:37.408Z,34.4
2022-10-21T05:55:04.050Z,30.5
2022-10-21T05:57:30.650Z,30.7
2022-10-21T05:59:57.277Z,31.1
2022-10-21T06:02:23.972Z,27.1
2022-10-21T06:04:50.508Z,28.9
2022-10-21T06:07:17.148Z,31.2
2022-10-21T06:09:43.768Z,29.1
2022-10-21T06:12:10.391Z,33.2
2022-10-21T06:14:35.521Z,35.2
2022-10-21T06:17:02.140Z,34.2
2022-10-21T06:19:28.760Z,33.9
2022-10-21T06:21:55.443Z,33.3
2022-10-21T06:26:48.624Z,30.6
2022-10-21T06:29:15.356Z,31.6
2022-10-21T06:31:41.860Z,36.2
2022-10-21T06:34:08.494Z,28.8
2022-10-21T06:36:35.134Z,32.1
2022-10-21T06:39:01.749Z,32.5
2022-10-21T06:41:28.528Z,32.3
2022-10-21T06:46:21.617Z,32
2022-10-21T06:48:46.784Z,31.7
2022-10-21T06:51:13.364Z,31.4
2022-10-21T06:53:40.025Z,28.7
2022-10-21T06:56:06.665Z,38.3
2022-10-21T06:58:33.484Z,27.6
2022-10-21T07:00:59.851Z,36
2022-10-21T07:05:53.162Z,31.1
2022-10-21T07:08:18.263Z,25.8
2022-10-21T07:10:43.347Z,28.1
2022-10-21T07:13:10.005Z,36.3
2022-10-21T07:15:36.611Z,36.3
2022-10-21T07:18:03.224Z,48.9
2022-10-21T07:25:23.081Z,31.7
2022-10-21T07:27:49.717Z,36.4
2022-10-21T07:30:16.344Z,31.9
2022-10-21T07:32:42.962Z,37.9
2022-10-21T07:35:09.601Z,34.9
2022-10-21T07:37:36.465Z,58.9
2022-10-21T07:40:01.337Z,43
2022-10-21T07:42:26.526Z,35.1
2022-10-21T07:44:53.096Z,32.3
2022-10-21T07:47:19.707Z,31.6
2022-10-21T07:49:46.336Z,33.5
2022-10-21T07:52:12.971Z,34.5
2022-10-21T07:54:39.612Z,34.4
2022-10-21T07:59:32.829Z,36.4
2022-10-21T08:01:59.453Z,34.4
2022-10-21T08:04:26.054Z,42.1
2022-10-21T08:11:45.954Z,38.4
2022-10-21T08:14:12.569Z,32.4
2022-10-21T08:16:37.689Z,33.3
2022-10-21T08:19:04.342Z,34.3
2022-10-21T08:21:30.947Z,34
2022-10-21T08:23:57.555Z,37.2
2022-10-21T08:28:50.789Z,42.2
2022-10-21T08:31:17.430Z,36.3
2022-10-21T08:33:44.074Z,33.9
2022-10-21T08:36:10.674Z,33.7
2022-10-21T08:38:35.809Z,42
2022-10-21T08:41:02.439Z,31.5
2022-10-21T08:43:29.069Z,34.3
2022-10-21T08:45:55.675Z,35.3
2022-10-21T08:48:22.323Z,26.4
2022-10-21T08:53:15.547Z,34.4
2022-10-21T08:55:42.164Z,27.5
2022-10-21T08:58:08.860Z,21.3
2022-10-21T09:00:35.410Z,27.4
2022-10-21T09:03:02.085Z,26.2
2022-10-21T09:05:28.667Z,25.8
2022-10-21T09:07:55.278Z,25.1
2022-10-21T09:10:20.432Z,25.4
2022-10-21T09:12:47.021Z,25.7
2022-10-21T09:15:13.654Z,26.5
2022-10-21T09:17:40.269Z,21.8
2022-10-21T09:20:05.634Z,25.8
2022-10-21T09:22:30.549Z,25.5
2022-10-21T09:24:57.189Z,28.8
2022-10-21T09:27:23.809Z,22.7
2022-10-21T09:29:50.427Z,24.3
2022-10-21T09:32:17.036Z,22.9
2022-10-21T09:34:43.667Z,29
2022-10-21T09:39:37.106Z,24.4
2022-10-21T09:42:03.542Z,26.7
2022-10-21T09:44:30.162Z,22.9
2022-10-21T09:46:56.750Z,19.9
2022-10-21T09:49:23.432Z,26.9
2022-10-21T09:51:50.012Z,24.8
2022-10-21T09:54:15.142Z,18.3
2022-10-21T09:56:41.745Z,20.7
2022-10-21T09:59:08.380Z,17.1
2022-10-21T10:01:35.018Z,22.1
2022-10-21T10:04:01.625Z,19.2
2022-10-21T10:06:28.292Z,20.1
2022-10-21T10:08:54.872Z,20.1
2022-10-21T10:13:48.116Z,17.8
2022-10-21T10:16:14.738Z,17.7
2022-10-21T10:21:08.008Z,19
2022-10-21T10:23:33.134Z,17.9
2022-10-21T10:25:58.240Z,10.6
2022-10-21T10:28:24.965Z,15.5
2022-10-21T10:30:51.524Z,14.7
2022-10-21T10:33:18.134Z,15.5
2022-10-21T10:38:11.360Z,13.3
2022-10-21T10:40:37.968Z,16.3
2022-10-21T10:43:04.597Z,12.7
2022-10-21T10:45:31.223Z,15.2
2022-10-21T10:47:57.840Z,16.6
2022-10-21T10:50:24.453Z,12.6
2022-10-21T10:52:51.102Z,17
2022-10-21T10:55:17.745Z,14.2
2022-10-21T10:57:42.834Z,14.6
2022-10-21T11:00:09.459Z,20.2
2022-10-21T11:02:36.081Z,14.1
2022-10-21T11:05:02.754Z,15
2022-10-21T11:07:29.333Z,13.9
2022-10-21T11:09:55.951Z,10.9
2022-10-21T11:12:22.575Z,9.8
2022-10-21T11:14:49.212Z,10.5
2022-10-21T11:17:14.345Z,12.2
2022-10-21T11:19:39.451Z,11.3
2022-10-21T11:22:06.067Z,6.3
2022-10-21T11:26:59.450Z,9
2022-10-21T11:29:25.995Z,7.1
2022-10-21T11:31:52.569Z,12.1
2022-10-21T11:34:19.185Z,8.7
2022-10-21T11:36:45.803Z,8.6
2022-10-21T11:39:12.436Z,6.6
2022-10-21T11:41:39.302Z,9.5
2022-10-21T11:44:05.674Z,4.8
2022-10-21T11:46:32.305Z,6.4
2022-10-21T11:48:58.943Z,7.6
2022-10-21T11:51:24.049Z,5.7
2022-10-21T11:53:50.686Z,4.2
2022-10-21T11:56:17.296Z,4.7
2022-10-21T11:58:43.931Z,8.8
2022-10-21T12:08:30.420Z,6.9
2022-10-21T12:18:15.422Z,5.8
2022-10-21T12:20:40.595Z,6.9
2022-10-21T12:23:07.160Z,2.6
2022-10-21T12:30:25.590Z,3.3
2022-10-21T12:32:52.177Z,4.1
2022-10-21T12:35:18.784Z,3
2022-10-21T12:37:45.452Z,2.9
2022-10-21T12:40:12.081Z,2.7
2022-10-21T12:42:38.675Z,2.9
2022-10-21T12:45:05.329Z,3.5
2022-10-21T12:49:58.513Z,4.9
2022-10-21T12:57:18.385Z,3.8
2022-10-21T12:59:43.509Z,5.5
2022-10-21T13:02:10.133Z,5.7
2022-10-21T13:04:36.761Z,4.2
2022-10-21T13:07:03.400Z,5.2
2022-10-21T13:09:30.045Z,3.3
2022-10-21T13:11:56.696Z,3.6
2022-10-21T13:14:23.277Z,3.7
2022-10-21T13:16:49.876Z,3.5
2022-10-21T13:19:16.527Z,2
2022-10-21T13:21:43.114Z,2.9
2022-10-21T13:26:36.412Z,2.9
2022-10-21T13:31:29.601Z,3.9
2022-10-21T13:33:54.734Z,2.7
2022-10-21T13:36:21.352Z,4.1
2022-10-21T13:41:14.608Z,2.4
2022-10-21T13:48:34.471Z,3.4
2022-10-21T13:53:27.726Z,3.3
2022-10-21T13:55:54.333Z,3.7
2022-10-21T14:03:14.236Z,4.7
2022-10-21T14:05:39.316Z,2.8
2022-10-21T14:10:32.594Z,3.4
2022-10-21T14:15:25.817Z,3.8
2022-10-21T14:17:52.446Z,3.2
2022-10-21T14:20:19.068Z,3.9
2022-10-21T14:25:12.360Z,1.5
2022-10-21T14:27:38.925Z,3.7
2022-10-21T14:30:05.602Z,2
2022-10-21T14:32:32.172Z,4.3
2022-10-21T14:34:58.798Z,2.8
2022-10-21T14:37:23.923Z,5.3
2022-10-21T14:39:50.575Z,2.4
2022-10-21T14:44:43.790Z,2
2022-10-21T14:47:10.419Z,4.3
2022-10-21T14:49:37.043Z,2.1
2022-10-21T14:54:30.284Z,1.6
2022-10-21T14:56:56.901Z,3.1
2022-10-21T14:59:23.547Z,2.8
2022-10-21T15:01:50.145Z,3.1
2022-10-21T15:04:16.779Z,1.3
2022-10-21T15:09:10.068Z,3.4
2022-10-21T15:14:01.781Z,8.3
2022-10-21T15:16:28.393Z,5.8
2022-10-21T15:21:21.637Z,6.6
2022-10-21T15:23:48.253Z,2.4
2022-10-21T15:31:08.128Z,3.7
2022-10-21T15:33:34.788Z,4.1
2022-10-21T15:36:01.431Z,3.3
2022-10-21T15:38:28.005Z,7.5
2022-10-21T15:40:54.626Z,2.1
2022-10-21T15:43:19.753Z,2
2022-10-21T15:45:46.383Z,4
2022-10-21T15:48:12.991Z,2.2
2022-10-21T15:53:06.247Z,2.3
2022-10-21T15:55:32.929Z,1.1
2022-10-21T15:57:59.483Z,2.6
2022-10-21T16:00:26.116Z,3.8
2022-10-21T16:02:52.731Z,2.5
2022-10-21T16:07:45.985Z,2
2022-10-21T16:10:12.605Z,2.6
2022-10-21T16:12:39.248Z,2.9
2022-10-21T16:15:05.843Z,1.4
2022-10-21T16:17:30.968Z,2.6
2022-10-21T16:19:57.607Z,3
2022-10-21T16:22:24.272Z,2.9
2022-10-21T16:24:50.986Z,2
2022-10-21T16:27:17.612Z,1.2
2022-10-21T16:29:44.228Z,1.5
2022-10-21T16:32:10.737Z,3.8
2022-10-21T16:34:37.433Z,3.3
2022-10-21T16:37:04.131Z,2.9
2022-10-21T16:41:57.347Z,5.9
2022-10-21T16:44:23.981Z,6.7
2022-10-21T16:46:50.543Z,7.3
2022-10-21T16:49:15.585Z,3.3
2022-10-21T16:51:42.325Z,6
2022-10-21T16:54:08.955Z,5.1
2022-10-21T16:56:35.607Z,3.1
2022-10-21T16:59:00.734Z,2.9
2022-10-21T17:01:25.714Z,5
2022-10-21T17:03:52.329Z,5.9
2022-10-21T17:06:19.039Z,3.1
2022-10-21T17:08:45.574Z,7.5
2022-10-21T17:11:12.206Z,3
2022-10-21T17:13:38.822Z,3
2022-10-21T17:16:05.448Z,2.5
2022-10-21T17:18:32.093Z,4.8
2022-10-21T17:20:58.698Z,2.1
2022-10-21T17:23:25.311Z,3.2
2022-10-21T17:25:51.999Z,2.7
2022-10-21T17:28:18.561Z,2.9
2022-10-21T17:33:10.330Z,1.6
2022-10-21T17:35:36.941Z,3.2
2022-10-21T17:38:02.116Z,2.1
2022-10-21T17:40:28.683Z,3.4
2022-10-21T17:42:55.298Z,3
2022-10-21T17:45:21.926Z,0.8
2022-10-21T17:47:48.556Z,3.3
2022-10-21T17:50:15.182Z,2.6
2022-10-21T17:55:06.931Z,3.6
2022-10-21T17:57:33.561Z,4.9
2022-10-21T17:59:58.673Z,3.5
2022-10-21T18:02:25.311Z,4.5
2022-10-21T18:04:51.923Z,6.1
2022-10-21T18:07:18.549Z,9
2022-10-21T18:09:45.176Z,11.2
2022-10-21T18:12:11.925Z,4.6
2022-10-21T18:14:38.523Z,9.9
2022-10-21T18:17:05.186Z,9.1
2022-10-21T18:19:31.651Z,8.3
2022-10-21T18:21:58.411Z,11.6
2022-10-21T18:26:51.593Z,7.8
2022-10-21T18:31:44.947Z,7.4
2022-10-21T18:34:10.045Z,8.9
2022-10-21T18:36:35.210Z,7.9
2022-10-21T18:39:01.749Z,5.9
2022-10-21T18:41:28.289Z,6.2
2022-10-21T18:43:55.058Z,10.5
2022-10-21T18:46:21.558Z,8.5
2022-10-21T18:48:48.307Z,11.6
2022-10-21T18:51:14.920Z,8.3
2022-10-21T18:53:41.496Z,9.2
2022-10-21T18:56:08.042Z,7.9
2022-10-21T18:58:34.648Z,6.1
2022-10-21T19:00:59.789Z,6.7
2022-10-21T19:03:24.976Z,8.5
2022-10-21T19:05:51.653Z,13.3
2022-10-21T19:08:18.145Z,10.3
2022-10-21T19:10:44.766Z,8.9
2022-10-21T19:13:11.444Z,9.2
2022-10-21T19:15:38.008Z,8.1
2022-10-21T19:18:04.746Z,6.8
2022-10-21T19:22:58.054Z,12.3
2022-10-21T19:25:24.532Z,10
2022-10-21T19:27:51.128Z,6.4
2022-10-21T19:30:17.752Z,6.3
2022-10-21T19:32:44.392Z,7.9
2022-10-21T19:35:09.505Z,5.8
2022-10-21T19:37:36.120Z,4.9
2022-10-21T19:40:02.760Z,5
2022-10-21T19:42:29.373Z,6.2
2022-10-21T19:44:55.982Z,7.7
2022-10-21T19:47:22.609Z,7.8
2022-10-21T19:49:49.232Z,8.5
2022-10-21T19:52:15.861Z,11
2022-10-21T19:54:40.991Z,12.9
2022-10-21T19:57:06.130Z,9.3
2022-10-21T19:59:32.745Z,11.2
2022-10-21T20:01:59.469Z,11.2
2022-10-21T20:06:52.601Z,12.2
2022-10-21T20:09:19.224Z,12.7
2022-10-21T20:11:45.996Z,14.5
2022-10-21T20:14:12.606Z,8.2
2022-10-21T20:16:39.288Z,9.6
2022-10-21T20:19:05.886Z,13.9
2022-10-21T20:21:32.438Z,17.9
2022-10-21T20:23:59.077Z,15.8
2022-10-21T20:26:25.736Z,13.2
2022-10-21T20:28:52.250Z,15.6
2022-10-21T20:31:17.485Z,12.5
2022-10-21T20:33:44.105Z,11.6
2022-10-21T20:36:10.713Z,13.3
2022-10-21T20:38:37.201Z,11.9
2022-10-21T20:41:03.994Z,14.9
2022-10-21T20:43:30.488Z,12.2
2022-10-21T20:50:50.446Z,14.4
2022-10-21T20:53:15.597Z,12.6
2022-10-21T20:55:40.718Z,16
2022-10-21T20:58:07.348Z,12.5
2022-10-21T21:00:33.968Z,14.7
2022-10-21T21:03:00.561Z,23.9
2022-10-21T21:05:27.221Z,15.5
2022-10-21T21:07:53.831Z,19.4
2022-10-21T21:12:47.068Z,16.2
2022-10-21T21:15:13.702Z,12.1
2022-10-21T21:17:40.327Z,10.1
2022-10-21T21:20:06.948Z,13.6
2022-10-21T21:22:33.426Z,9.5
2022-10-21T21:25:00.170Z,11.6
2022-10-21T21:27:25.197Z,9.7
2022-10-21T21:29:51.932Z,9.6
2022-10-21T21:32:18.575Z,13.3
2022-10-21T21:34:45.217Z,15.4
2022-10-21T21:37:11.766Z,13.5
2022-10-21T21:39:38.456Z,16.3
2022-10-21T21:42:05.034Z,13.7
2022-10-21T21:44:31.679Z,11.1
2022-10-21T21:46:58.313Z,9
2022-10-21T21:49:24.783Z,9.7
2022-10-21T21:51:49.902Z,7.4
2022-10-21T21:54:15.213Z,9.3
2022-10-21T21:56:41.785Z,9.5
2022-10-21T21:59:08.279Z,11.6
2022-10-21T22:01:35.062Z,7.3
2022-10-21T22:04:01.674Z,10.9
2022-10-21T22:06:28.148Z,9.7
2022-10-21T22:08:54.794Z,9.8
2022-10-21T22:11:21.545Z,7.5
2022-10-21T22:13:48.181Z,9.2
2022-10-21T22:16:14.800Z,10.1
2022-10-21T22:21:08.050Z,10.9
2022-10-21T22:23:34.505Z,7.9
2022-10-21T22:25:59.782Z,9
2022-10-21T22:28:26.416Z,6.6
2022-10-21T22:33:19.652Z,9.1
2022-10-21T22:35:44.764Z,6.3
2022-10-21T22:38:09.755Z,8.7
2022-10-21T22:40:36.580Z,5.7
2022-10-21T22:43:03.144Z,13.6
2022-10-21T22:45:29.774Z,5.9
2022-10-21T22:50:22.870Z,10.6
2022-10-21T22:52:49.619Z,4.9
2022-10-21T22:55:16.281Z,6.2
2022-10-21T22:57:42.894Z,6
2022-10-21T23:00:09.581Z,4.2
2022-10-21T23:02:35.990Z,9.2
2022-10-21T23:05:02.612Z,7.1
2022-10-21T23:07:29.386Z,4.9
2022-10-21T23:09:54.512Z,5.9
2022-10-21T23:17:14.376Z,9.5
2022-10-21T23:19:39.535Z,7
2022-10-21T23:22:04.638Z,5.8
2022-10-21T23:24:31.263Z,11.2
2022-10-21T23:26:57.875Z,7
2022-10-21T23:29:24.519Z,8.6
2022-10-21T23:31:51.064Z,11.5
2022-10-21T23:34:17.749Z,14.2
2022-10-21T23:36:44.368Z,11.3
2022-10-21T23:39:10.990Z,11.2
2022-10-21T23:41:37.615Z,9.3
2022-10-21T23:44:04.173Z,6.6
2022-10-21T23:46:30.721Z,9.8
2022-10-21T23:48:55.992Z,6.7
2022-10-21T23:51:21.096Z,8.9
2022-10-21T23:53:47.749Z,8
2022-10-21T23:56:14.329Z,5.1
2022-10-21T23:58:40.992Z,6.4
